createdAt,value
2022-10-29T11:43:53.022Z,22.20
2022-10-29T11:46:28.202Z,23.00
2022-10-29T11:51:34.159Z,23.10
2022-10-29T11:56:51.239Z,23.40
2022-10-29T11:59:40.366Z,23.30
2022-10-29T12:02:23.392Z,23.10
2022-10-29T12:04:59.782Z,23.00
2022-10-29T12:07:41.149Z,22.90
2022-10-29T12:10:45.390Z,22.90
2022-10-29T12:13:24.799Z,22.90
2022-10-29T12:16:07.124Z,22.90
2022-10-29T12:18:44.956Z,22.90
2022-10-29T12:21:23.048Z,23.00
2022-10-29T12:24:01.704Z,23.10
2022-10-29T12:26:38.777Z,23.20
2022-10-29T12:29:15.624Z,23.30
2022-10-29T12:36:57.687Z,23.30
2022-10-29T12:47:06.465Z,23.50
2022-10-29T12:49:48.594Z,23.70
2022-10-29T12:52:21.052Z,23.70
2022-10-29T12:54:52.058Z,23.80
2022-10-29T13:08:23.563Z,23.80
2022-10-29T13:10:54.252Z,23.90
2022-10-29T13:13:57.276Z,23.90
2022-10-29T13:16:31.407Z,23.80
2022-10-29T13:19:24.735Z,23.80
2022-10-29T13:21:57.894Z,23.90
2022-10-29T13:24:26.311Z,23.90
2022-10-29T13:26:56.298Z,23.80
2022-10-29T13:30:15.843Z,23.80
2022-10-29T13:32:44.993Z,23.80
2022-10-29T13:35:41.257Z,23.80
2022-10-29T13:38:15.834Z,23.80
2022-10-29T13:41:14.005Z,23.80
2022-10-29T13:54:09.237Z,23.80
2022-10-29T13:56:45.126Z,23.60
2022-10-29T13:59:21.967Z,23.50
2022-10-29T14:02:03.791Z,23.40
2022-10-29T14:04:38.913Z,23.40
2022-10-29T14:07:15.319Z,23.40
2022-10-29T14:09:46.920Z,23.30
2022-10-29T14:12:21.126Z,23.30
2022-10-29T14:14:57.128Z,23.30
2022-10-29T14:17:24.928Z,23.20
2022-10-29T14:19:54.173Z,23.20
2022-10-29T14:22:29.248Z,23.10
2022-10-29T14:24:57.162Z,23.10
2022-10-29T14:27:24.981Z,23.00
2022-10-29T14:29:54.705Z,22.90
2022-10-29T14:32:24.219Z,22.90
2022-10-29T14:34:54.808Z,22.90
2022-10-29T14:37:27.955Z,22.90
2022-10-29T14:39:59.253Z,22.80
2022-10-29T14:42:32.265Z,22.70
2022-10-29T14:45:03.864Z,22.50
2022-10-29T14:47:34.280Z,22.40
2022-10-29T14:50:05.507Z,22.40
2022-10-29T14:52:36.308Z,22.30
2022-10-29T15:37:58.278Z,21.20
2022-10-29T15:40:26.781Z,21.10
2022-10-29T15:42:55.909Z,21.00
2022-10-29T15:45:25.941Z,20.90
2022-10-29T15:47:57.418Z,20.80
2022-10-29T15:50:27.943Z,20.70
2022-10-29T15:53:01.902Z,20.70
2022-10-29T15:55:32.051Z,20.60
2022-10-29T15:58:06.085Z,20.50
2022-10-29T16:00:34.282Z,20.50
2022-10-29T16:03:13.679Z,20.40
2022-10-29T16:05:42.293Z,20.30
2022-10-29T16:08:24.218Z,20.30
2022-10-29T16:10:52.638Z,20.20
2022-10-29T16:13:22.020Z,20.20
2022-10-29T16:15:50.037Z,20.10
2022-10-29T16:18:17.951Z,20.10
2022-10-29T16:20:45.882Z,20.10
2022-10-29T16:23:15.567Z,20.00
2022-10-29T16:25:43.387Z,19.90
2022-10-29T16:28:11.270Z,19.90
2022-10-29T16:33:13.054Z,19.70
2022-10-29T16:35:40.870Z,19.70
2022-10-29T16:38:08.645Z,19.70
2022-10-29T16:40:37.840Z,19.60
2022-10-29T16:43:05.902Z,19.60
2022-10-29T16:45:33.832Z,19.60
2022-10-29T16:48:01.973Z,19.50
2022-10-29T16:50:32.534Z,19.50
2022-10-29T16:53:02.119Z,19.50
2022-10-29T16:55:31.038Z,19.50
2022-10-29T16:58:00.510Z,19.50
2022-10-29T17:00:31.832Z,19.50
2022-10-29T17:03:04.755Z,19.50
2022-10-29T17:05:38.472Z,19.50
2022-10-29T17:08:07.074Z,19.50
2022-10-29T17:10:34.908Z,19.50
2022-10-29T17:13:04.307Z,19.40
2022-10-29T17:15:32.172Z,19.40
2022-10-29T17:22:57.228Z,19.40
2022-10-29T17:25:25.135Z,19.40
2022-10-29T17:27:53.005Z,19.40
2022-10-29T17:30:22.223Z,19.40
2022-10-29T17:32:50.135Z,19.30
2022-10-29T17:35:18.114Z,19.30
2022-10-29T17:37:45.881Z,19.20
2022-10-29T17:40:13.787Z,19.20
2022-10-29T17:42:43.383Z,19.20
2022-10-29T17:45:13.417Z,19.20
2022-10-29T17:47:42.617Z,19.20
2022-10-29T17:50:10.855Z,19.20
2022-10-29T17:52:38.728Z,19.10
2022-10-29T17:55:07.517Z,19.10
2022-10-29T17:57:35.334Z,19.10
2022-10-29T18:00:03.748Z,19.10
2022-10-29T18:02:31.704Z,19.10
2022-10-29T18:05:01.091Z,19.10
2022-10-29T18:07:28.943Z,19.10
2022-10-29T18:09:56.783Z,19.10
2022-10-29T18:12:24.643Z,19.10
2022-10-29T18:14:52.437Z,19.00
2022-10-29T18:17:20.264Z,19.00
2022-10-29T18:19:48.154Z,19.00
2022-10-29T18:22:17.364Z,19.10
2022-10-29T18:24:45.170Z,19.10
2022-10-29T18:27:12.983Z,19.10
2022-10-29T18:29:40.892Z,19.00
2022-10-29T18:32:08.785Z,19.10
2022-10-29T18:34:36.649Z,19.20
2022-10-29T18:37:06.465Z,19.10
2022-10-29T18:39:35.738Z,19.10
2022-10-29T18:42:03.636Z,19.10
2022-10-29T18:44:31.566Z,19.10
2022-10-29T18:46:59.450Z,19.00
2022-10-29T18:49:27.928Z,19.10
2022-10-29T18:51:55.785Z,19.20
2022-10-29T18:54:23.649Z,19.20
2022-10-29T18:56:52.968Z,19.20
2022-10-29T18:59:21.422Z,19.20
2022-10-29T19:01:49.418Z,19.30
2022-10-29T19:04:17.597Z,19.30
2022-10-29T19:06:45.901Z,19.40
2022-10-29T19:09:14.163Z,19.40
2022-10-29T19:11:42.204Z,19.40
2022-10-29T19:14:14.069Z,19.50
2022-10-29T19:16:42.019Z,19.50
2022-10-29T19:19:13.376Z,19.50
2022-10-29T19:21:43.036Z,19.50
2022-10-29T19:24:14.810Z,19.60
2022-10-29T19:26:43.243Z,19.60
2022-10-29T19:29:12.847Z,19.50
2022-10-29T19:31:41.345Z,19.50
2022-10-29T19:34:09.611Z,19.50
2022-10-29T19:36:39.904Z,19.50
2022-10-29T19:39:08.173Z,19.50
2022-10-29T19:41:35.985Z,19.50
2022-10-29T19:44:04.390Z,19.50
2022-10-29T19:46:33.700Z,19.50
2022-10-29T19:49:01.630Z,19.50
2022-10-29T19:51:29.532Z,19.50
2022-10-29T19:54:01.429Z,19.40
2022-10-29T19:56:29.368Z,19.40
2022-10-29T19:58:57.175Z,19.40
2022-10-29T20:01:25.182Z,19.30
2022-10-29T20:03:54.409Z,19.20
2022-10-29T20:06:22.310Z,19.20
2022-10-29T20:08:50.196Z,19.20
2022-10-29T20:11:18.587Z,19.20
2022-10-29T20:13:46.567Z,19.20
2022-10-29T20:16:17.559Z,19.10
2022-10-29T20:18:45.863Z,19.10
2022-10-29T20:21:16.139Z,19.10
2022-10-29T20:23:44.687Z,19.10
2022-10-29T20:26:13.541Z,19.10
2022-10-29T20:28:41.957Z,19.00
2022-10-29T20:31:14.622Z,19.00
2022-10-29T20:33:42.536Z,19.00
2022-10-29T20:36:10.864Z,19.00
2022-10-29T20:38:40.115Z,19.00
2022-10-29T20:41:08.041Z,18.90
2022-10-29T20:43:35.901Z,18.90
2022-10-29T20:46:04.826Z,18.90
2022-10-29T20:48:32.729Z,18.90
2022-10-29T20:51:00.566Z,18.90
2022-10-29T20:53:28.515Z,18.90
2022-10-29T20:55:57.692Z,18.80
2022-10-29T20:58:25.540Z,18.80
2022-10-29T21:00:53.458Z,18.70
2022-10-29T21:03:21.282Z,18.60
